Time,TemperatureF,DewpointF,PressureIn,WindDirection,WindDirectionDegrees,WindSpeedMPH,WindSpeedGustMPH,Humidity,HourlyPrecipIn,Conditions,Clouds,dailyrainin,SoftwareType,DateUTC
2013-02-24 00:09:00,17.9,15.0,29.80,East,92,0.0,1.0,88,0.00,,,0.00,weatherlink.com 1.10,2013-02-24 07:09:00,
2013-02-24 00:24:00,17.6,15.0,29.80,ENE,70,0.0,2.0,88,0.00,,,0.00,weatherlink.com 1.10,2013-02-24 07:24:00,
2013-02-24 00:39:00,17.4,15.0,29.80,East,81,0.0,1.0,88,0.00,,,0.00,weatherlink.com 1.10,2013-02-24 07:39:00,
2013-02-24 00:54:00,16.8,14.0,29.80,East,81,0.0,0.0,88,0.00,,,0.00,weatherlink.com 1.10,2013-02-24 07:54:00,
2013-02-24 01:09:00,16.4,14.0,29.80,East,80,0.0,0.0,89,0.00,,,0.00,weatherlink.com 1.10,2013-02-24 08:09:00,
2013-02-24 01:25:00,16.4,14.0,29.79,East,81,0.0,0.0,89,0.00,,,0.00,weatherlink.com 1.10,2013-02-24 08:25:00,
2013-02-24 01:40:00,16.3,14.0,29.79,East,81,0.0,0.0,89,0.00,,,0.00,weatherlink.com 1.10,2013-02-24 08:40:00,
2013-02-24 01:55:00,16.7,14.0,29.78,East,80,0.0,0.0,89,0.00,,,0.00,weatherlink.com 1.10,2013-02-24 08:55:00,
2013-02-24 02:10:00,17.0,14.0,29.78,East,81,0.0,0.0,89,0.00,,,0.00,weatherlink.com 1.10,2013-02-24 09:10:00,
2013-02-24 02:25:00,17.2,15.0,29.77,East,80,0.0,0.0,89,0.00,,,0.00,weatherlink.com 1.10,2013-02-24 09:25:00,
2013-02-24 02:40:00,17.2,15.0,29.77,East,80,0.0,0.0,89,0.00,,,0.00,weatherlink.com 1.10,2013-02-24 09:40:00,
2013-02-24 02:55:00,17.2,15.0,29.77,East,81,0.0,0.0,89,0.00,,,0.00,weatherlink.com 1.10,2013-02-24 09:55:00,
2013-02-24 03:10:00,17.3,15.0,29.77,East,80,0.0,0.0,89,0.00,,,0.00,weatherlink.com 1.10,2013-02-24 10:10:00,
2013-02-24 03:25:00,17.4,15.0,29.77,East,81,0.0,0.0,89,0.00,,,0.00,weatherlink.com 1.10,2013-02-24 10:25:00,
2013-02-24 03:40:00,17.4,15.0,29.77,East,80,0.0,1.0,89,0.00,,,0.00,weatherlink.com 1.10,2013-02-24 10:40:00,
2013-02-24 03:55:00,17.4,15.0,29.77,North,6,0.0,0.0,89,0.00,,,0.00,weatherlink.com 1.10,2013-02-24 10:55:00,
2013-02-24 04:10:00,17.4,15.0,29.77,North,7,0.0,0.0,89,0.00,,,0.00,weatherlink.com 1.10,2013-02-24 11:10:00,
2013-02-24 04:25:00,17.5,15.0,29.78,East,81,0.0,0.0,89,0.00,,,0.00,weatherlink.com 1.10,2013-02-24 11:25:00,
2013-02-24 04:40:00,17.6,15.0,29.78,NE,51,0.0,2.0,89,0.00,,,0.00,weatherlink.com 1.10,2013-02-24 11:40:00,
2013-02-24 04:55:00,17.7,15.0,29.79,NE,52,4.0,4.0,89,0.00,,,0.00,weatherlink.com 1.10,2013-02-24 11:55:00,
2013-02-24 05:10:00,17.6,15.0,29.80,ENE,61,5.0,5.0,89,0.00,,,0.00,weatherlink.com 1.10,2013-02-24 12:10:00,
2013-02-24 05:25:00,17.5,15.0,29.80,ENE,65,1.0,3.0,89,0.00,,,0.00,weatherlink.com 1.10,2013-02-24 12:25:00,
2013-02-24 05:55:00,17.4,15.0,29.81,NNE,33,0.0,1.0,89,0.00,,,0.00,weatherlink.com 1.10,2013-02-24 12:55:00,
2013-02-24 06:10:00,17.4,15.0,29.81,NNE,13,0.0,1.0,89,0.00,,,0.00,weatherlink.com 1.10,2013-02-24 13:10:00,
2013-02-24 06:25:00,17.3,15.0,29.82,NNE,15,0.0,1.0,89,0.00,,,0.00,weatherlink.com 1.10,2013-02-24 13:25:00,
2013-02-24 06:40:00,17.3,15.0,29.82,NNW,345,0.0,0.0,89,0.00,,,0.00,weatherlink.com 1.10,2013-02-24 13:40:00,
2013-02-24 06:55:00,17.3,15.0,29.82,NE,43,2.0,4.0,89,0.00,,,0.00,weatherlink.com 1.10,2013-02-24 13:55:00,
2013-02-24 07:10:00,17.3,15.0,29.83,East,93,1.0,4.0,89,0.00,,,0.00,weatherlink.com 1.10,2013-02-24 14:10:00,
2013-02-24 07:25:00,17.3,15.0,29.84,ESE,105,1.0,2.0,89,0.00,,,0.00,weatherlink.com 1.10,2013-02-24 14:25:00,
2013-02-24 07:40:00,17.3,15.0,29.84,ENE,57,0.0,4.0,89,0.00,,,0.00,weatherlink.com 1.10,2013-02-24 14:40:00,
2013-02-24 07:55:00,17.3,15.0,29.85,ENE,58,0.0,3.0,89,0.00,,,0.00,weatherlink.com 1.10,2013-02-24 14:55:00,
2013-02-24 08:10:00,17.4,15.0,29.86,SE,128,0.0,0.0,89,0.00,,,0.00,weatherlink.com 1.10,2013-02-24 15:10:00,
2013-02-24 08:25:00,17.6,15.0,29.86,NE,40,0.0,0.0,89,0.00,,,0.00,weatherlink.com 1.10,2013-02-24 15:25:00,
2013-02-24 08:40:00,17.5,15.0,29.87,ENE,63,0.0,0.0,89,0.00,,,0.00,weatherlink.com 1.10,2013-02-24 15:40:00,
2013-02-24 08:55:00,17.4,15.0,29.88,NNW,330,0.0,0.0,88,0.00,,,0.00,weatherlink.com 1.10,2013-02-24 15:55:00,
2013-02-24 09:10:00,17.1,14.0,29.88,NNW,346,0.0,0.0,88,0.00,,,0.00,weatherlink.com 1.10,2013-02-24 16:10:00,
2013-02-24 09:25:00,16.8,14.0,29.89,ESE,112,4.0,9.0,88,0.00,,,0.00,weatherlink.com 1.10,2013-02-24 16:25:00,
2013-02-24 09:40:00,16.5,14.0,29.90,North,6,5.0,13.0,88,0.00,,,0.00,weatherlink.com 1.10,2013-02-24 16:40:00,
2013-02-24 09:55:00,16.1,13.0,29.91,NE,53,2.0,10.0,87,0.00,,,0.00,weatherlink.com 1.10,2013-02-24 16:55:00,
2013-02-24 10:10:00,15.9,13.0,29.93,North,349,1.0,14.0,87,0.00,,,0.00,weatherlink.com 1.10,2013-02-24 17:10:00,
2013-02-24 10:25:00,16.2,13.0,29.94,NE,44,6.0,10.0,88,0.00,,,0.00,weatherlink.com 1.10,2013-02-24 17:25:00,
2013-02-24 10:40:00,16.9,14.0,29.95,East,82,2.0,8.0,87,0.00,,,0.00,weatherlink.com 1.10,2013-02-24 17:40:00,
2013-02-24 10:55:00,16.6,13.0,29.95,NNE,30,3.0,6.0,87,0.00,,,0.00,weatherlink.com 1.10,2013-02-24 17:55:00,
2013-02-24 11:11:00,16.7,14.0,29.96,NNW,338,2.0,6.0,87,0.00,,,0.00,weatherlink.com 1.10,2013-02-24 18:11:00,
2013-02-24 11:26:00,16.5,13.0,29.97,NNE,30,3.0,8.0,87,0.00,,,0.00,weatherlink.com 1.10,2013-02-24 18:26:00,
2013-02-24 11:41:00,15.7,13.0,29.97,NNE,12,5.0,11.0,87,0.00,,,0.00,weatherlink.com 1.10,2013-02-24 18:41:00,
2013-02-24 11:56:00,16.0,13.0,29.97,ENE,68,3.0,9.0,87,0.00,,,0.00,weatherlink.com 1.10,2013-02-24 18:56:00,
2013-02-24 12:11:00,16.5,14.0,29.97,ENE,58,3.0,5.0,88,0.00,,,0.00,weatherlink.com 1.10,2013-02-24 19:11:00,
2013-02-24 12:26:00,16.4,13.0,29.97,NE,42,6.0,9.0,87,0.00,,,0.00,weatherlink.com 1.10,2013-02-24 19:26:00,
2013-02-24 12:41:00,16.8,14.0,29.98,NE,41,4.0,6.0,87,0.00,,,0.00,weatherlink.com 1.10,2013-02-24 19:41:00,
2013-02-24 12:56:00,16.7,14.0,29.98,ENE,69,3.0,8.0,88,0.00,,,0.00,weatherlink.com 1.10,2013-02-24 19:56:00,
2013-02-24 13:11:00,16.9,14.0,29.99,ENE,68,4.0,8.0,87,0.00,,,0.00,weatherlink.com 1.10,2013-02-24 20:11:00,
2013-02-24 13:26:00,16.6,13.0,29.99,NE,51,3.0,7.0,87,0.00,,,0.00,weatherlink.com 1.10,2013-02-24 20:26:00,
2013-02-24 13:41:00,16.5,13.0,30.00,NNE,24,8.0,12.0,87,0.00,,,0.00,weatherlink.com 1.10,2013-02-24 20:41:00,
2013-02-24 13:56:00,16.8,14.0,30.00,NE,55,4.0,8.0,87,0.00,,,0.00,weatherlink.com 1.10,2013-02-24 20:56:00,
2013-02-24 14:11:00,17.0,14.0,30.01,NE,39,5.0,7.0,87,0.00,,,0.00,weatherlink.com 1.10,2013-02-24 21:11:00,
2013-02-24 14:26:00,17.0,14.0,30.01,ENE,70,3.0,6.0,86,0.00,,,0.00,weatherlink.com 1.10,2013-02-24 21:26:00,
2013-02-24 14:41:00,17.1,14.0,30.02,East,94,5.0,9.0,86,0.00,,,0.00,weatherlink.com 1.10,2013-02-24 21:41:00,
2013-02-24 14:56:00,17.3,14.0,30.03,ENE,77,0.0,6.0,87,0.00,,,0.00,weatherlink.com 1.10,2013-02-24 21:56:00,
2013-02-24 15:11:00,17.3,14.0,30.04,ENE,72,3.0,7.0,87,0.00,,,0.00,weatherlink.com 1.10,2013-02-24 22:11:00,
2013-02-24 15:26:00,17.3,14.0,30.05,NE,40,3.0,6.0,87,0.00,,,0.00,weatherlink.com 1.10,2013-02-24 22:26:00,
2013-02-24 15:41:00,17.2,14.0,30.06,NE,51,4.0,5.0,87,0.00,,,0.00,weatherlink.com 1.10,2013-02-24 22:41:00,
2013-02-24 15:56:00,17.0,14.0,30.08,ESE,103,2.0,6.0,88,0.00,,,0.00,weatherlink.com 1.10,2013-02-24 22:56:00,
2013-02-24 16:11:00,16.4,13.0,30.09,NE,51,3.0,6.0,87,0.00,,,0.00,weatherlink.com 1.10,2013-02-24 23:11:00,
2013-02-24 16:26:00,15.8,13.0,30.10,East,94,5.0,6.0,88,0.00,,,0.00,weatherlink.com 1.10,2013-02-24 23:26:00,
2013-02-24 16:41:00,15.6,13.0,30.11,ESE,115,3.0,6.0,88,0.00,,,0.00,weatherlink.com 1.10,2013-02-24 23:41:00,
2013-02-24 16:56:00,15.4,13.0,30.11,ESE,113,3.0,5.0,88,0.00,,,0.00,weatherlink.com 1.10,2013-02-24 23:56:00,
2013-02-24 17:11:00,15.2,12.0,30.12,ENE,67,0.0,4.0,88,0.00,,,0.00,weatherlink.com 1.10,2013-02-25 00:11:00,
2013-02-24 17:26:00,14.9,12.0,30.14,ESE,103,2.0,4.0,88,0.00,,,0.00,weatherlink.com 1.10,2013-02-25 00:26:00,
2013-02-24 17:41:00,14.5,12.0,30.15,East,94,0.0,5.0,88,0.00,,,0.00,weatherlink.com 1.10,2013-02-25 00:41:00,
2013-02-24 17:56:00,13.9,11.0,30.16,ENE,70,0.0,1.0,89,0.00,,,0.00,weatherlink.com 1.10,2013-02-25 00:56:00,
2013-02-24 18:11:00,13.6,11.0,30.17,East,89,1.0,2.0,89,0.00,,,0.00,weatherlink.com 1.10,2013-02-25 01:11:00,
2013-02-24 18:26:00,13.6,11.0,30.18,ENE,65,0.0,2.0,89,0.00,,,0.00,weatherlink.com 1.10,2013-02-25 01:26:00,
2013-02-24 18:42:00,13.6,11.0,30.19,ESE,103,0.0,0.0,89,0.00,,,0.00,weatherlink.com 1.10,2013-02-25 01:42:00,
2013-02-24 18:57:00,13.5,11.0,30.20,ESE,103,0.0,0.0,89,0.00,,,0.00,weatherlink.com 1.10,2013-02-25 01:57:00,
2013-02-24 19:12:00,13.4,11.0,30.21,ESE,104,0.0,0.0,89,0.00,,,0.00,weatherlink.com 1.10,2013-02-25 02:12:00,
2013-02-24 19:27:00,13.3,11.0,30.22,ESE,103,0.0,0.0,89,0.00,,,0.00,weatherlink.com 1.10,2013-02-25 02:27:00,
2013-02-24 19:42:00,12.8,10.0,30.22,ESE,103,0.0,0.0,89,0.00,,,0.00,weatherlink.com 1.10,2013-02-25 02:42:00,
2013-02-24 19:57:00,11.5,9.0,30.22,ESE,103,0.0,0.0,88,0.00,,,0.00,weatherlink.com 1.10,2013-02-25 02:57:00,
2013-02-24 20:12:00,9.6,7.0,30.23,ESE,103,0.0,0.0,87,0.00,,,0.00,weatherlink.com 1.10,2013-02-25 03:12:00,
2013-02-24 20:27:00,7.7,4.0,30.23,ESE,104,0.0,0.0,86,0.00,,,0.00,weatherlink.com 1.10,2013-02-25 03:27:00,
2013-02-24 20:42:00,6.7,4.0,30.24,SSW,208,0.0,0.0,88,0.00,,,0.00,weatherlink.com 1.10,2013-02-25 03:42:00,
2013-02-24 20:57:00,6.3,4.0,30.24,SSE,150,2.0,3.0,88,0.00,,,0.00,weatherlink.com 1.10,2013-02-25 03:57:00,
2013-02-24 21:12:00,6.3,4.0,30.25,SW,233,0.0,2.0,88,0.00,,,0.00,weatherlink.com 1.10,2013-02-25 04:12:00,
2013-02-24 21:27:00,5.7,3.0,30.26,SSW,204,0.0,0.0,87,0.00,,,0.00,weatherlink.com 1.10,2013-02-25 04:27:00,
2013-02-24 21:42:00,4.6,2.0,30.26,SW,230,0.0,0.0,87,0.00,,,0.00,weatherlink.com 1.10,2013-02-25 04:42:00,
2013-02-24 21:57:00,3.5,0.0,30.27,SW,231,0.0,0.0,86,0.00,,,0.00,weatherlink.com 1.10,2013-02-25 04:57:00,
2013-02-24 22:12:00,3.2,0.0,30.27,SW,235,0.0,2.0,87,0.00,,,0.00,weatherlink.com 1.10,2013-02-25 05:12:00,
2013-02-24 22:27:00,2.7,-1.0,30.28,SSW,203,0.0,4.0,86,0.00,,,0.00,weatherlink.com 1.10,2013-02-25 05:27:00,
2013-02-24 22:42:00,2.4,-1.0,30.28,SSW,207,0.0,3.0,86,0.00,,,0.00,weatherlink.com 1.10,2013-02-25 05:42:00,
2013-02-24 22:57:00,1.7,-2.0,30.28,SE,141,0.0,0.0,86,0.00,,,0.00,weatherlink.com 1.10,2013-02-25 05:57:00,
2013-02-24 23:12:00,1.4,-2.0,30.27,SW,219,0.0,2.0,87,0.00,,,0.00,weatherlink.com 1.10,2013-02-25 06:12:00,
2013-02-24 23:27:00,1.8,-1.0,30.27,South,169,0.0,1.0,87,0.00,,,0.00,weatherlink.com 1.10,2013-02-25 06:27:00,
2013-02-24 23:42:00,1.8,-1.0,30.27,SE,146,0.0,0.0,87,0.00,,,0.00,weatherlink.com 1.10,2013-02-25 06:42:00,
2013-02-24 23:57:00,1.5,-2.0,30.27,ESE,107,0.0,0.0,87,0.00,,,0.00,weatherlink.com 1.10,2013-02-25 06:57:00,